Flight Track Log - Related Links

Times and Time Zones

All times are in EDT time to prevent confusion due to time zone crossing. See the JZA8279 flight status page for this flight to view local times or setup timezone preferences in your user account.

Time Position Orientation Groundspeed Altitude Reporting Facility
EDT Latitude Longitude Course Direction KTS MPH feet Rate Location/Type
Tue 01:52:43 PM 54.2500 -130.4500 136° Southeast 130 150 1,400  Level Vancouver Center
Tue 01:53:43 PM 54.2000 -130.4000 150° Southeast 170 196 2,200 850 Climbing Vancouver Center
Tue 01:54:43 PM 54.1667 -130.3333 130° Southeast 190 219 3,100 700 Climbing Vancouver Center
Tue 01:55:43 PM 54.1333 -130.2667 130° Southeast 210 242 3,600 550 Climbing Vancouver Center
Tue 01:56:43 PM 54.0833 -130.1667 130° Southeast 220 253 4,200 600 Climbing Vancouver Center
Tue 01:57:43 PM 54.0333 -130.1167 150° Southeast 220 253 4,800 450 Climbing Vancouver Center
Tue 01:58:00 PM 54.0019 -129.9736 136° Southeast  Level Estimated
Tue 01:58:43 PM 53.9833 -130.0500 142° Southeast 220 253 5,100  Level Vancouver Center
Tue 01:59:43 PM 53.9667 -129.9500 106° East 230 265 5,600 650 Climbing Vancouver Center
Tue 02:00:43 PM 53.9167 -129.9000 149° Southeast 230 265 6,400 750 Climbing Vancouver Center
Tue 02:01:43 PM 53.8667 -129.8000 130° Southeast 230 265 7,100 550 Climbing Vancouver Center
Tue 02:02:43 PM 53.8167 -129.7333 142° Southeast 230 265 7,500 450 Climbing Vancouver Center
Tue 02:03:43 PM 53.7667 -129.6500 135° Southeast 240 276 8,000 550 Climbing Vancouver Center
Tue 02:04:43 PM 53.7333 -129.5833 130° Southeast 240 276 8,600 650 Climbing Vancouver Center
Tue 02:05:43 PM 53.6833 -129.5000 135° Southeast 230 265 9,300 650 Climbing Vancouver Center
Tue 02:06:43 PM 53.6333 -129.4333 142° Southeast 230 265 9,900 650 Climbing Vancouver Center
Tue 02:07:43 PM 53.5833 -129.3333 130° Southeast 230 265 10,600 650 Climbing Vancouver Center
Tue 02:08:43 PM 53.5333 -129.2833 149° Southeast 230 265 11,200 650 Climbing Vancouver Center
Tue 02:09:43 PM 53.5000 -129.1833 119° Southeast 240 276 11,900 700 Climbing Vancouver Center
Tue 02:10:43 PM 53.4500 -129.1167 142° Southeast 240 276 12,600 650 Climbing Vancouver Center
Tue 02:11:43 PM 53.4000 -129.0333 135° Southeast 240 276 13,200 600 Climbing Vancouver Center
Tue 02:12:43 PM 53.3500 -128.9500 135° Southeast 240 276 13,800 600 Climbing Vancouver Center
Tue 02:13:43 PM 53.3000 -128.8833 141° Southeast 240 276 14,400 600 Climbing Vancouver Center
Tue 02:14:43 PM 53.2667 -128.8000 124° Southeast 250 288 15,000 450 Climbing Vancouver Center
Tue 02:15:43 PM 53.2167 -128.7000 130° Southeast 250 288 15,300 400 Climbing Vancouver Center
Tue 02:16:43 PM 53.1500 -128.6500 156° South 250 288 15,800 550 Climbing Vancouver Center
Tue 02:17:43 PM 53.1000 -128.5500 130° Southeast 260 299 16,400 550 Climbing Vancouver Center
Tue 02:18:43 PM 53.0500 -128.4667 135° Southeast 250 288 16,900 550 Climbing Vancouver Center
Tue 02:19:43 PM 53.0167 -128.3833 124° Southeast 250 288 17,500 504 Climbing Vancouver Center
Tue 02:20:42 PM 52.9500 -128.2833 138° Southeast 260 299 17,900 454 Climbing Vancouver Center
Tue 02:21:42 PM 52.9000 -128.2333 149° Southeast 260 299 18,400 450 Climbing Vancouver Center
Tue 02:22:42 PM 52.8500 -128.1333 130° Southeast 260 299 18,800 400 Climbing Vancouver Center
Tue 02:23:42 PM 52.8000 -128.0500 135° Southeast 270 311 19,200 400 Climbing Vancouver Center
Tue 02:24:42 PM 52.7333 -127.9667 143° Southeast 260 299 19,600 400 Climbing Vancouver Center
Tue 02:25:42 PM 52.7000 -127.8833 123° Southeast 260 299 20,000 350 Climbing Vancouver Center
Tue 02:26:42 PM 52.6500 -127.7833 129° Southeast 270 311 20,300 300 Climbing Vancouver Center
Tue 02:27:42 PM 52.5833 -127.7000 143° Southeast 260 299 20,600 350 Climbing Vancouver Center
Tue 02:28:42 PM 52.5333 -127.6333 141° Southeast 270 311 21,000 350 Climbing Vancouver Center
Tue 02:29:42 PM 52.4667 -127.5500 143° Southeast 270 311 21,300 350 Climbing Vancouver Center
Tue 02:30:42 PM 52.4167 -127.4667 135° Southeast 270 311 21,700 400 Climbing Vancouver Center
Tue 02:31:42 PM 52.3500 -127.3833 143° Southeast 270 311 22,100 350 Climbing Vancouver Center
Tue 02:32:42 PM 52.3167 -127.3000 123° Southeast 270 311 22,400 300 Climbing Vancouver Center
Tue 02:33:42 PM 52.2667 -127.2000 129° Southeast 270 311 22,700 300 Climbing Vancouver Center
Tue 02:34:42 PM 52.2000 -127.1167 143° Southeast 270 311 23,000 150 Climbing Vancouver Center
Tue 02:35:42 PM 52.1500 -127.0333 134° Southeast 270 311 23,000  Level Vancouver Center
Tue 02:36:42 PM 52.0833 -126.9500 142° Southeast 280 322 23,000  Level Vancouver Center
Tue 02:37:42 PM 52.0167 -126.8667 142° Southeast 280 322 23,000  Level Vancouver Center
Tue 02:38:42 PM 51.9667 -126.7833 134° Southeast 280 322 23,000  Level Vancouver Center
Tue 02:39:42 PM 51.9000 -126.7000 142° Southeast 280 322 23,000  Level Vancouver Center
Tue 02:40:42 PM 51.8500 -126.6167 134° Southeast 280 322 23,000  Level Vancouver Center
Tue 02:41:42 PM 51.8000 -126.5167 129° Southeast 280 322 23,000  Level Vancouver Center
Tue 02:42:42 PM 51.7500 -126.4333 134° Southeast 280 322 23,000  Level Vancouver Center
Tue 02:43:42 PM 51.6833 -126.3500 142° Southeast 280 322 23,000  Level Vancouver Center
Tue 02:44:42 PM 51.6167 -126.2667 142° Southeast 280 322 23,000  Level Vancouver Center
Tue 02:45:42 PM 51.5667 -126.1833 134° Southeast 280 322 23,000  Level Vancouver Center
Tue 02:46:42 PM 51.5000 -126.1000 142° Southeast 280 322 23,000  Level Vancouver Center
Tue 02:47:42 PM 51.4500 -126.0167 134° Southeast 280 322 23,000  Level Vancouver Center
Tue 02:48:42 PM 51.3833 -125.9333 142° Southeast 280 322 23,000  Level Vancouver Center
Tue 02:49:42 PM 51.3333 -125.8500 134° Southeast 280 322 23,000  Level Vancouver Center
Tue 02:50:42 PM 51.2833 -125.7500 129° Southeast 280 322 23,000  Level Vancouver Center
Tue 02:51:42 PM 51.2167 -125.6833 148° Southeast 280 322 23,000  Level Vancouver Center
Tue 02:52:42 PM 51.1667 -125.5833 129° Southeast 280 322 23,000  Level Vancouver Center
Tue 02:53:42 PM 51.1000 -125.5000 142° Southeast 280 322 23,000  Level Vancouver Center
Tue 02:54:42 PM 51.0500 -125.4167 134° Southeast 280 322 23,000  Level Vancouver Center
Tue 02:55:42 PM 50.9833 -125.3333 142° Southeast 280 322 23,000  Level Vancouver Center
Tue 02:56:42 PM 50.9167 -125.2500 142° Southeast 280 322 23,000  Level Vancouver Center
Tue 02:57:42 PM 50.8667 -125.1667 134° Southeast 280 322 23,000  Level Vancouver Center
Tue 02:58:42 PM 50.8000 -125.1000 148° Southeast 280 322 23,000  Level Vancouver Center
Tue 02:59:42 PM 50.7500 -125.0167 133° Southeast 280 322 23,000  Level Vancouver Center
Tue 03:00:42 PM 50.6833 -124.9333 142° Southeast 280 322 23,000  Level Vancouver Center
Tue 03:01:42 PM 50.6167 -124.8500 142° Southeast 280 322 23,000  Level Vancouver Center
Tue 03:02:42 PM 50.5667 -124.7667 133° Southeast 280 322 23,000  Level Vancouver Center
Tue 03:03:42 PM 50.5000 -124.6833 141° Southeast 270 311 23,000  Level Vancouver Center
Tue 03:04:42 PM 50.4500 -124.6167 140° Southeast 280 322 23,000  Level Vancouver Center
Tue 03:05:42 PM 50.3833 -124.5333 141° Southeast 280 322 23,000  Level Vancouver Center
Tue 03:06:42 PM 50.3167 -124.4500 141° Southeast 280 322 23,000  Level Vancouver Center
Tue 03:07:42 PM 50.2667 -124.3667 133° Southeast 280 322 23,000 -500 Level Vancouver Center
Tue 03:08:42 PM 50.2000 -124.3000 147° Southeast 290 334 22,000 -1,000 Descending Vancouver Center
Tue 03:09:42 PM 50.1333 -124.2167 141° Southeast 290 334 21,000 -1,000 Descending Vancouver Center
Tue 03:10:42 PM 50.0833 -124.1333 133° Southeast 290 334 20,000 -1,100 Descending Vancouver Center
Tue 03:11:42 PM 50.0167 -124.0333 136° Southeast 300 345 18,800 -1,100 Descending Vancouver Center
Tue 03:12:42 PM 49.9500 -123.9500 141° Southeast 300 345 17,800 -1,100 Descending Vancouver Center
Tue 03:13:42 PM 49.8833 -123.8833 147° Southeast 300 345 16,600 -1,100 Descending Vancouver Center
Tue 03:14:42 PM 49.8167 -123.8000 141° Southeast 300 345 15,600 -1,050 Descending Vancouver Center
Tue 03:15:42 PM 49.7500 -123.7000 136° Southeast 300 345 14,500 -900 Descending Vancouver Center
Tue 03:16:42 PM 49.7000 -123.6167 133° Southeast 290 334 13,800 -550 Descending Vancouver Center
Tue 03:17:42 PM 49.6333 -123.5667 154° Southeast 280 322 13,400 -500 Descending Vancouver Center
Tue 03:18:42 PM 49.5500 -123.5500 173° South 270 311 12,800 -900 Descending Vancouver Center
Tue 03:19:42 PM 49.4833 -123.5167 162° South 280 322 11,600 -1,500 Descending Vancouver Center
Tue 03:20:42 PM 49.4000 -123.4833 165° South 280 322 9,800 -1,700 Descending Vancouver Center
Tue 03:21:42 PM 49.3333 -123.5000 189° South 270 311 8,200 -1,700 Descending Vancouver Center
Tue 03:22:42 PM 49.2500 -123.5167 187° South 260 299 6,400 -1,900 Descending Vancouver Center
Tue 03:23:42 PM 49.2000 -123.5000 168° South 250 288 4,400 -1,600 Descending Vancouver Center
Tue 03:24:42 PM 49.1833 -123.3833 102° East 210 242 3,200 -1,100 Descending Vancouver Center
Tue 03:25:42 PM 49.1833 -123.3167 90° East 180 207 2,200 -1,050 Descending Vancouver Center
Tue 03:26:42 PM 49.1833 -123.2667 90° East 150 173 1,100 -1,000 Descending Vancouver Center
Tue 03:27:42 PM 49.1667 -123.2167 117° Southeast 120 138 200 -900 Descending Vancouver Center

Login

Don't have an account? Register now (free) for customized features, flight alerts, and more!